createdAt,value
2022-10-12T00:04:17.305Z,97750.34
2022-10-12T00:09:38.079Z,97757.63
2022-10-12T00:14:58.676Z,97757.38
2022-10-12T00:20:19.476Z,97762.97
2022-10-12T00:25:41.518Z,97755.59
2022-10-12T00:31:07.653Z,97749.56
2022-10-12T00:36:32.603Z,97745.53
2022-10-12T00:41:53.699Z,97739.72
2022-10-12T00:47:29.575Z,97740.19
2022-10-12T00:52:53.590Z,97736.03
2022-10-12T00:58:15.164Z,97753.72
2022-10-12T01:03:36.836Z,97738.41
2022-10-12T01:08:58.152Z,97752.75
2022-10-12T01:14:19.646Z,97748.47
2022-10-12T01:20:10.592Z,97748.59
2022-10-12T01:25:56.661Z,97746.47
2022-10-12T01:31:30.059Z,97746.00
2022-10-12T01:37:21.416Z,97742.94
2022-10-12T01:42:44.490Z,97745.41
2022-10-12T01:48:05.870Z,97740.41
2022-10-12T01:53:34.171Z,97736.63
2022-10-12T01:59:11.511Z,97726.78
2022-10-12T02:04:58.600Z,97723.94
2022-10-12T02:10:35.522Z,97736.28
2022-10-12T02:16:00.616Z,97725.72
2022-10-12T02:21:26.132Z,97732.47
2022-10-12T02:26:49.466Z,97734.50
2022-10-12T02:32:19.193Z,97732.72
2022-10-12T02:38:18.651Z,97731.75
2022-10-12T02:43:48.106Z,97717.66
2022-10-12T02:49:11.743Z,97715.03
2022-10-12T02:54:32.393Z,97712.06
2022-10-12T02:59:53.188Z,97709.59
2022-10-12T03:05:13.886Z,97711.25
2022-10-12T03:10:34.633Z,97715.75
2022-10-12T03:16:01.588Z,97716.47
2022-10-12T03:21:22.363Z,97716.69
2022-10-12T03:26:43.128Z,97707.56
2022-10-12T03:32:03.776Z,97705.91
2022-10-12T03:37:24.498Z,97706.84
2022-10-12T03:42:45.211Z,97709.47
2022-10-12T03:48:07.142Z,97705.53
2022-10-12T03:53:27.926Z,97710.88
2022-10-12T03:58:48.542Z,97705.53
2022-10-12T04:04:10.874Z,97708.53
2022-10-12T04:09:31.680Z,97707.69
2022-10-12T04:14:54.614Z,97708.28
2022-10-12T04:20:15.510Z,97706.25
2022-10-12T04:25:36.058Z,97713.03
2022-10-12T04:30:56.412Z,97710.19
2022-10-12T04:36:16.976Z,97710.88
2022-10-12T04:41:39.584Z,97712.19
2022-10-12T04:47:03.126Z,97704.25
2022-10-12T04:52:23.864Z,97704.47
2022-10-12T04:57:44.576Z,97713.63
2022-10-12T05:03:05.667Z,97708.97
2022-10-12T05:08:26.526Z,97714.66
2022-10-12T05:13:47.611Z,97715.97
2022-10-12T05:19:08.371Z,97709.22
2022-10-12T05:24:29.097Z,97714.69
2022-10-12T05:29:49.630Z,97711.22
2022-10-12T05:35:11.329Z,97708.25
2022-10-12T05:40:32.970Z,97718.31
2022-10-12T05:45:53.487Z,97721.34
2022-10-12T05:51:14.324Z,97732.16
2022-10-12T05:56:34.841Z,97732.91
2022-10-12T06:01:55.575Z,97735.50
2022-10-12T06:07:16.211Z,97732.53
2022-10-12T06:12:37.283Z,97741.13
2022-10-12T06:17:58.304Z,97737.22
2022-10-12T06:23:20.242Z,97745.75
2022-10-12T06:28:41.701Z,97740.91
2022-10-12T06:34:02.257Z,97741.50
2022-10-12T06:39:25.617Z,97742.44
2022-10-12T06:44:46.593Z,97746.00
2022-10-12T06:50:08.931Z,97741.97
2022-10-12T06:55:29.699Z,97745.28
2022-10-12T07:00:50.703Z,97748.16
2022-10-12T07:06:14.059Z,97752.88
2022-10-12T07:11:35.088Z,97766.41
2022-10-12T07:16:55.822Z,97765.09
2022-10-12T07:22:16.387Z,97761.44
2022-10-12T07:27:37.446Z,97761.78
2022-10-12T07:32:58.267Z,97754.66
2022-10-12T07:38:18.824Z,97750.28
2022-10-12T07:43:39.436Z,97751.44
2022-10-12T07:49:00.309Z,97760.94
2022-10-12T07:54:26.796Z,97763.28
2022-10-12T07:59:49.717Z,97758.41
2022-10-12T08:05:10.473Z,97759.84
2022-10-12T08:10:34.311Z,97754.66
2022-10-12T08:15:55.242Z,97757.94
2022-10-12T08:21:17.434Z,97752.47
2022-10-12T08:26:38.634Z,97751.22
2022-10-12T08:32:01.838Z,97756.09
2022-10-12T08:37:22.873Z,97752.53
2022-10-12T08:42:56.646Z,97760.53
2022-10-12T08:48:24.571Z,97756.34
2022-10-12T08:53:55.742Z,97750.84
2022-10-12T08:59:19.018Z,97753.19
2022-10-12T09:04:59.601Z,97744.00
2022-10-12T09:10:20.516Z,97750.91
2022-10-12T09:15:52.944Z,97742.81
2022-10-12T09:21:18.315Z,97741.47
2022-10-12T09:26:42.080Z,97744.66
2022-10-12T09:32:49.224Z,97739.94
2022-10-12T09:38:10.698Z,97743.41
2022-10-12T09:43:31.609Z,97741.47
2022-10-12T09:49:00.420Z,97740.44
2022-10-12T09:54:28.380Z,97741.44
2022-10-12T09:59:49.821Z,97751.41
2022-10-12T10:05:34.283Z,97741.22
2022-10-12T10:10:57.034Z,97732.31
2022-10-12T10:16:20.286Z,97742.69
2022-10-12T10:21:42.031Z,97747.22
2022-10-12T10:27:04.935Z,97738.81
2022-10-12T10:32:29.989Z,97734.25
2022-10-12T10:38:00.989Z,97731.22
2022-10-12T10:43:30.622Z,97728.75
2022-10-12T10:48:53.635Z,97729.72
2022-10-12T10:54:23.701Z,97717.16
2022-10-12T10:59:47.319Z,97715.63
2022-10-12T11:05:16.910Z,97703.91
2022-10-12T11:10:46.780Z,97698.94
2022-10-12T11:16:28.639Z,97697.25
2022-10-12T11:21:54.673Z,97691.56
2022-10-12T11:27:25.827Z,97683.25
2022-10-12T11:32:52.618Z,97687.09
2022-10-12T11:38:42.514Z,97689.00
2022-10-12T11:44:24.132Z,97678.22
2022-10-12T11:49:59.843Z,97678.75
2022-10-12T11:55:38.560Z,97685.34
2022-10-12T12:01:17.628Z,97673.75
2022-10-12T12:07:02.738Z,97667.97
2022-10-12T12:12:29.049Z,97670.34
2022-10-12T12:18:29.108Z,97671.31
2022-10-12T12:23:53.525Z,97672.44
2022-10-12T12:29:26.853Z,97665.25
2022-10-12T12:35:00.729Z,97664.00
2022-10-12T12:40:23.056Z,97671.88
2022-10-12T12:45:55.690Z,97667.03
2022-10-12T12:51:20.546Z,97656.53
2022-10-12T12:57:07.647Z,97664.13
2022-10-12T13:03:19.534Z,97654.34
2022-10-12T13:09:08.623Z,97648.50
2022-10-12T13:14:53.864Z,97646.94
2022-10-12T13:20:17.798Z,97648.28
2022-10-12T13:25:48.282Z,97642.38
2022-10-12T13:31:18.253Z,97636.25
2022-10-12T13:37:10.699Z,97641.81
2022-10-12T13:42:34.896Z,97638.88
2022-10-12T13:48:04.459Z,97636.56
2022-10-12T13:53:33.747Z,97630.25
2022-10-12T13:59:04.253Z,97625.13
2022-10-12T14:04:30.132Z,97617.34
2022-10-12T14:10:17.071Z,97618.59
2022-10-12T14:15:40.592Z,97619.09
2022-10-12T14:21:26.872Z,97614.53
2022-10-12T14:26:57.831Z,97611.88
2022-10-12T14:32:26.856Z,97607.19
2022-10-12T14:37:48.606Z,97605.16
2022-10-12T14:43:12.527Z,97603.34
2022-10-12T14:48:33.278Z,97603.50
2022-10-12T14:54:04.171Z,97600.19
2022-10-12T14:59:24.900Z,97601.19
2022-10-12T15:04:46.387Z,97604.94
2022-10-12T15:10:08.092Z,97601.91
2022-10-12T15:15:40.731Z,97602.19
2022-10-12T15:21:01.718Z,97588.78
2022-10-12T15:26:23.367Z,97592.97
2022-10-12T15:31:47.698Z,97588.81
2022-10-12T15:37:11.728Z,97585.81
2022-10-12T15:42:32.440Z,97578.00
2022-10-12T15:47:53.901Z,97576.00
2022-10-12T15:53:24.357Z,97578.75
2022-10-12T15:58:45.690Z,97573.66
2022-10-12T16:04:07.115Z,97562.81
2022-10-12T16:09:28.148Z,97561.47
2022-10-12T16:14:48.820Z,97560.94
2022-10-12T16:20:10.689Z,97565.19
2022-10-12T16:25:31.623Z,97563.72
2022-10-12T16:30:52.960Z,97566.00
2022-10-12T16:36:16.290Z,97570.06
2022-10-12T16:41:37.239Z,97564.88
2022-10-12T16:46:58.044Z,97573.06
2022-10-12T16:52:19.840Z,97577.41
2022-10-12T16:57:41.429Z,97574.53
2022-10-12T17:03:02.093Z,97574.66
2022-10-12T17:08:22.794Z,97572.59
2022-10-12T17:13:48.770Z,97579.59
2022-10-12T17:19:09.890Z,97577.09
2022-10-12T17:24:32.350Z,97580.13
2022-10-12T17:29:53.568Z,97583.59
2022-10-12T17:35:14.749Z,97580.09
2022-10-12T17:40:39.287Z,97583.09
2022-10-12T17:46:00.278Z,97592.91
2022-10-12T17:51:20.935Z,97587.34
2022-10-12T17:56:44.113Z,97589.72
2022-10-12T18:02:09.222Z,97595.31
2022-10-12T18:07:30.309Z,97586.78
2022-10-12T18:12:52.251Z,97580.13
2022-10-12T18:18:15.243Z,97583.44
2022-10-12T18:23:36.942Z,97583.81
2022-10-12T18:29:00.609Z,97578.97
2022-10-12T18:34:21.394Z,97568.94
2022-10-12T18:39:44.033Z,97564.03
2022-10-12T18:45:05.462Z,97575.88
2022-10-12T18:50:26.957Z,97582.50
2022-10-12T18:55:48.615Z,97588.09
2022-10-12T19:01:14.939Z,97579.50
2022-10-12T19:06:38.169Z,97581.78
2022-10-12T19:11:59.081Z,97571.16
2022-10-12T19:17:23.159Z,97580.75
2022-10-12T19:22:43.809Z,97585.88
2022-10-12T19:28:04.503Z,97581.84
2022-10-12T19:33:27.322Z,97585.63
2022-10-12T19:38:48.404Z,97589.44
2022-10-12T19:44:11.407Z,97581.72
2022-10-12T19:49:36.622Z,97573.44
2022-10-12T19:54:58.607Z,97576.78
2022-10-12T20:00:19.740Z,97582.94
2022-10-12T20:05:46.403Z,97577.44
2022-10-12T20:11:08.865Z,97572.97
2022-10-12T20:16:35.047Z,97575.44
2022-10-12T20:21:56.084Z,97573.56
2022-10-12T20:27:17.181Z,97577.41
2022-10-12T20:32:38.149Z,97578.69
2022-10-12T20:38:00.009Z,97579.94
2022-10-12T20:43:20.972Z,97568.25
2022-10-12T20:48:44.453Z,97566.81
2022-10-12T20:54:06.578Z,97571.19
2022-10-12T20:59:27.122Z,97577.22
2022-10-12T21:04:51.245Z,97567.97
2022-10-12T21:10:11.993Z,97575.22
2022-10-12T21:15:32.567Z,97577.94
2022-10-12T21:20:58.524Z,97569.06
2022-10-12T21:26:21.757Z,97556.78
2022-10-12T21:31:42.602Z,97566.44
2022-10-12T21:37:03.412Z,97571.19
2022-10-12T21:42:24.154Z,97562.66
2022-10-12T21:47:44.701Z,97561.72
2022-10-12T21:53:05.189Z,97559.13
2022-10-12T21:58:26.011Z,97556.63
2022-10-12T22:03:49.841Z,97558.75
2022-10-12T22:09:16.893Z,97569.06
2022-10-12T22:14:37.451Z,97556.25
2022-10-12T22:19:58.351Z,97558.25
2022-10-12T22:25:18.913Z,97560.50
2022-10-12T22:30:40.129Z,97550.09
2022-10-12T22:36:01.563Z,97553.78
2022-10-12T22:41:23.413Z,97551.63
2022-10-12T22:46:44.319Z,97546.63
2022-10-12T22:52:05.079Z,97535.84
2022-10-12T22:57:30.118Z,97541.78
2022-10-12T23:02:50.629Z,97539.63
2022-10-12T23:08:11.157Z,97538.38
2022-10-12T23:13:33.052Z,97541.25
2022-10-12T23:18:59.818Z,97528.22
2022-10-12T23:24:20.426Z,97531.88
2022-10-12T23:29:41.095Z,97532.44
2022-10-12T23:35:02.347Z,97538.19
2022-10-12T23:40:22.875Z,97531.03
2022-10-12T23:45:44.287Z,97536.22
2022-10-12T23:51:09.747Z,97531.91
2022-10-12T23:56:30.446Z,97532.63
